Time;durP1;ratioP1;P1;durP2;ratioP2;P2;SDS_P1;SDS_P2;PMS_P1;PMS_P2;Temp;Humidity;BMP_temperature;BMP_pressure;BME280_temperature;BME280_humidity;BME280_pressure;Samples;Min_cycle;Max_cycle;Signal;HPM_P1;HPM_P2
2021/04/25 00:01:14;;;;;;;;;;;231.30;1587.20;;;;;;5089035;28;20081;-78
2021/04/25 00:03:39;;;;;;;27.17;13.35;;;231.30;1587.20;;;;;;5088495;28;19986;-79
2021/04/25 00:06:05;;;;;;;;;;;231.10;1561.60;;;;;;5077578;28;20020;-78
2021/04/25 00:08:32;;;;;;;24.27;12.73;;;231.00;1638.40;;;;;;5077772;28;19904;-78
2021/04/25 00:10:58;;;;;;;23.30;13.57;;;230.90;1664.00;;;;;;5084822;28;20036;-78
2021/04/25 00:13:25;;;;;;;23.08;13.48;;;230.90;1638.40;;;;;;5084974;28;20024;-78
2021/04/25 00:15:50;;;;;;;27.13;13.48;;;230.90;1612.80;;;;;;5074798;28;20089;-79
2021/04/25 00:18:16;;;;;;;;;;;230.80;1612.80;;;;;;5073227;28;20025;-78
2021/04/25 00:20:42;;;;;;;26.48;13.18;;;230.80;1638.40;;;;;;5084731;28;19946;-78
2021/04/25 00:23:07;;;;;;;;;;;230.90;1638.40;;;;;;5085094;28;20024;-78
2021/04/25 00:25:33;;;;;;;23.58;13.07;;;230.70;1638.40;;;;;;5088826;28;19977;-78
2021/04/25 00:27:59;;;;;;;;;;;230.70;1664.00;;;;;;5088984;28;20028;-78
2021/04/25 00:30:25;;;;;;;24.42;11.95;;;230.60;1664.00;;;;;;5086886;28;20415;-78
2021/04/25 00:32:51;;;;;;;29.13;13.77;;;230.60;1664.00;;;;;;5088540;28;20110;-78
2021/04/25 00:35:16;;;;;;;;;;;230.80;1612.80;;;;;;5091070;28;20142;-78
2021/04/25 00:37:43;;;;;;;27.50;13.75;;;230.80;1638.40;;;;;;5085297;28;19911;-78
2021/04/25 00:40:11;;;;;;;26.00;12.80;;;230.70;1638.40;;;;;;5083757;28;20017;-78
2021/04/25 00:42:37;;;;;;;29.08;14.85;;;230.70;1689.60;;;;;;5076073;28;20469;-78
2021/04/25 00:45:05;;;;;;;;;;;230.70;1664.00;;;;;;5086021;28;20030;-78
2021/04/25 00:47:30;;;;;;;25.80;13.95;;;230.70;1638.40;;;;;;5091244;28;20264;-79
2021/04/25 00:49:56;;;;;;;;;;;230.70;1664.00;;;;;;5086797;28;20020;-78
2021/04/25 00:52:22;;;;;;;28.05;13.02;;;230.70;1664.00;;;;;;5078615;28;19905;-78
2021/04/25 00:54:48;;;;;;;;;;;230.70;1664.00;;;;;;5081036;28;20051;-78
2021/04/25 00:57:16;;;;;;;27.25;13.70;;;230.70;1664.00;;;;;;5094629;28;20569;-78
2021/04/25 00:59:42;;;;;;;23.52;15.65;;;230.60;1664.00;;;;;;5086531;28;20032;-78
2021/04/25 01:02:09;;;;;;;28.92;15.25;;;230.70;1664.00;;;;;;5095185;28;20056;-78
2021/04/25 01:04:36;;;;;;;24.75;13.82;;;230.70;1664.00;;;;;;5090448;28;20020;-78
2021/04/25 01:07:03;;;;;;;24.80;14.18;;;230.80;1612.80;;;;;;5088431;28;20021;-79
2021/04/25 01:09:30;;;;;;;26.98;14.30;;;230.90;1587.20;;;;;;5089646;28;20021;-78
2021/04/25 01:11:56;;;;;;;26.90;13.93;;;230.90;1638.40;;;;;;5090505;28;20078;-78
2021/04/25 01:14:22;;;;;;;26.15;15.20;;;230.90;1638.40;;;;;;5077352;28;20025;-79
2021/04/25 01:16:49;;;;;;;28.63;15.50;;;231.00;1612.80;;;;;;5086437;28;20028;-78
2021/04/25 01:19:15;;;;;;;29.25;15.77;;;231.10;1587.20;;;;;;5081671;28;20024;-78
2021/04/25 01:21:41;;;;;;;35.42;17.60;;;231.00;1612.80;;;;;;5085364;28;20067;-77
2021/04/25 01:24:08;;;;;;;33.47;18.80;;;231.10;1612.80;;;;;;5080981;28;20050;-78
2021/04/25 01:26:34;;;;;;;46.95;24.05;;;231.10;1612.80;;;;;;5084776;28;20033;-78
2021/04/25 01:29:00;;;;;;;;;;;231.00;1638.40;;;;;;5087103;28;20566;-78
2021/04/25 01:31:26;;;;;;;38.72;17.85;;;230.90;1664.00;;;;;;5091942;28;19923;-79
2021/04/25 01:33:51;;;;;;;;;;;230.80;1664.00;;;;;;5089870;28;20028;-78
2021/04/25 01:36:17;;;;;;;32.45;16.95;;;230.90;1638.40;;;;;;5088828;28;20270;-78
2021/04/25 01:38:42;;;;;;;;;;;230.90;1638.40;;;;;;5086681;28;20036;-78
2021/04/25 01:41:08;;;;;;;38.95;19.00;;;231.00;1638.40;;;;;;5083283;28;20321;-78
2021/04/25 01:43:34;;;;;;;;;;;230.90;1638.40;;;;;;5086254;28;20020;-78
2021/04/25 01:46:00;;;;;;;36.85;19.75;;;230.80;1689.60;;;;;;5084017;28;20317;-77
2021/04/25 01:48:25;;;;;;;;;;;230.60;1689.60;;;;;;5088253;28;20020;-79
2021/04/25 01:50:51;;;;;;;36.45;18.70;;;230.60;1689.60;;;;;;5080254;28;20442;-78
2021/04/25 01:53:17;;;;;;;;;;;230.70;1664.00;;;;;;5087083;28;20077;-79
2021/04/25 01:55:43;;;;;;;37.22;19.48;;;230.80;1664.00;;;;;;5084551;28;20279;-78
2021/04/25 01:58:11;;;;;;;38.08;21.38;;;230.70;1664.00;;;;;;5084176;28;20475;-78
2021/04/25 02:00:43;;;;;;;38.80;20.75;;;230.70;1664.00;;;;;;5090060;28;20051;-78
2021/04/25 02:03:10;;;;;;;36.00;21.05;;;230.70;1689.60;;;;;;5088816;28;20478;-78
2021/04/25 02:05:38;;;;;;;39.42;20.98;;;230.80;1638.40;;;;;;5088464;28;20465;-78
2021/04/25 02:08:06;;;;;;;38.80;21.05;;;230.90;1638.40;;;;;;5084339;28;20032;-78
2021/04/25 02:10:32;;;;;;;38.72;20.25;;;230.90;1664.00;;;;;;5077857;28;20031;-78
2021/04/25 02:12:58;;;;;;;35.42;20.77;;;230.70;1689.60;;;;;;5076864;28;20466;-78
2021/04/25 02:15:24;;;;;;;;;;;230.70;1689.60;;;;;;5081989;28;20055;-78
2021/04/25 02:17:50;;;;;;;39.30;21.45;;;230.80;1715.20;;;;;;5085924;28;19905;-78
2021/04/25 02:20:16;;;;;;;;;;;230.70;1689.60;;;;;;5073575;28;20081;-78
2021/04/25 02:22:42;;;;;;;33.70;20.55;;;230.80;1689.60;;;;;;5080196;28;20384;-78
2021/04/25 02:25:09;;;;;;;;;;;230.90;1664.00;;;;;;5088542;28;20055;-79
2021/04/25 02:27:35;;;;;;;40.22;19.85;;;230.90;1664.00;;;;;;5080939;28;19911;-78
2021/04/25 02:30:01;;;;;;;;;;;230.90;1664.00;;;;;;5080677;28;20024;-78
2021/04/25 02:32:27;;;;;;;33.45;19.55;;;230.80;1689.60;;;;;;5088697;28;19915;-78
2021/04/25 02:34:53;;;;;;;;;;;230.70;1689.60;;;;;;5083096;28;20480;-78
2021/04/25 02:37:18;;;;;;;36.05;20.13;;;230.70;1740.80;;;;;;5081849;28;19958;-78
2021/04/25 02:39:44;;;;;;;;;;;230.60;1740.80;;;;;;5083563;28;20028;-78
2021/04/25 02:42:10;;;;;;;39.60;20.85;;;230.50;1740.80;;;;;;5079708;28;19904;-78
2021/04/25 02:44:35;;;;;;;;;;;230.50;1715.20;;;;;;5086654;28;20541;-78
2021/04/25 02:47:01;;;;;;;53.50;26.55;;;230.50;1715.20;;;;;;5074792;28;19911;-79
2021/04/25 02:49:27;;;;;;;57.08;27.15;;;205.70;1766.40;;;;;;5090479;28;20108;-78
2021/04/25 02:51:53;;;;;;;;;;;230.40;1766.40;;;;;;5083074;28;20540;-78
2021/04/25 02:54:19;;;;;;;43.67;23.00;;;230.40;1766.40;;;;;;5080227;28;19911;-78
2021/04/25 02:56:45;;;;;;;47.38;23.50;;;230.40;1766.40;;;;;;5072969;28;20013;-79
2021/04/25 02:59:11;;;;;;;;;;;205.70;1766.40;;;;;;5089451;28;20043;-78
2021/04/25 03:01:36;;;;;;;46.65;24.05;;;205.70;1792.00;;;;;;5092827;28;19908;-79
2021/04/25 03:04:02;;;;;;;;;;;230.40;1766.40;;;;;;5076247;28;20416;-78
2021/04/25 03:06:28;;;;;;;45.00;21.55;;;230.40;1792.00;;;;;;5086330;28;19904;-78
2021/04/25 03:08:53;;;;;;;;;;;205.60;1817.60;;;;;;5075490;28;20453;-78
2021/04/25 03:11:19;;;;;;;37.38;19.70;;;230.40;1792.00;;;;;;5079018;28;19912;-78
2021/04/25 03:13:45;;;;;;;;;;;205.70;1792.00;;;;;;5081003;28;20027;-78
2021/04/25 03:16:10;;;;;;;37.40;19.80;;;205.40;1843.20;;;;;;5086782;28;19905;-78
2021/04/25 03:18:36;;;;;;;;;;;205.40;1843.20;;;;;;5089759;28;20483;-78
2021/04/25 03:21:02;;;;;;;36.30;20.20;;;205.30;1843.20;;;;;;5071935;28;20276;-77
2021/04/25 03:23:27;;;;;;;;;;;205.20;1843.20;;;;;;5083541;28;20027;-78
2021/04/25 03:25:53;;;;;;;34.08;19.17;;;205.30;1843.20;;;;;;5085362;28;20158;-78
2021/04/25 03:28:20;;;;;;;;;;;205.40;1817.60;;;;;;5093010;28;20020;-78
2021/04/25 03:30:45;;;;;;;26.42;15.15;;;205.40;1817.60;;;;;;5077922;28;19920;-78
2021/04/25 03:33:11;;;;;;;;;;;205.20;1843.20;;;;;;5082460;28;20025;-78
2021/04/25 03:35:37;;;;;;;38.10;20.25;;;205.00;1843.20;;;;;;5081058;28;19911;-78
2021/04/25 03:38:02;;;;;;;;;;;205.00;1868.80;;;;;;5089902;28;20441;-78
2021/04/25 03:40:28;;;;;;;37.88;19.88;;;204.80;1894.40;;;;;;5089323;28;20352;-77
2021/04/25 03:42:54;;;;;;;;;;;204.80;1894.40;;;;;;5079488;28;20028;-78
2021/04/25 03:45:20;;;;;;;35.45;18.92;;;204.80;1894.40;;;;;;5076850;28;19904;-78
2021/04/25 03:47:48;;;;;;;41.08;22.52;;;180.10;1894.40;;;;;;5087661;28;20103;-78
2021/04/25 03:50:17;;;;;;;38.95;19.92;;;179.90;1920.00;;;;;;5085097;28;20077;-78
2021/04/25 03:52:46;;;;;;;41.53;22.98;;;179.70;1920.00;;;;;;5083428;28;20028;-77
2021/04/25 03:55:12;;;;;;;31.58;17.95;;;179.70;1945.60;;;;;;5078573;28;20035;-78
2021/04/25 03:57:38;;;;;;;35.47;18.10;;;179.90;1945.60;;;;;;5088143;28;20032;-78
2021/04/25 04:00:08;;;;;;;;;;;180.00;1894.40;;;;;;5082153;28;20049;-78
2021/04/25 04:02:34;;;;;;;39.70;18.13;;;179.90;1894.40;;;;;;5088534;28;20079;-78
2021/04/25 04:05:00;;;;;;;;;;;179.90;1920.00;;;;;;5082958;28;20390;-78
2021/04/25 04:07:25;;;;;;;38.22;19.13;;;179.90;1920.00;;;;;;5081990;28;19905;-78
2021/04/25 04:09:52;;;;;;;;;;;179.80;1920.00;;;;;;5077153;28;20461;-78
2021/04/25 04:12:18;;;;;;;41.53;20.05;;;179.90;1920.00;;;;;;5090364;28;19965;-77
2021/04/25 04:14:44;;;;;;;39.97;19.58;;;179.90;1894.40;;;;;;5079854;28;20487;-78
2021/04/25 04:17:10;;;;;;;;;;;180.00;1894.40;;;;;;5083977;28;20032;-78
2021/04/25 04:19:36;;;;;;;32.15;17.45;;;179.90;1920.00;;;;;;5072527;28;19930;-77
2021/04/25 04:22:01;;;;;;;;;;;179.70;1920.00;;;;;;5085084;28;20024;-77
2021/04/25 04:24:27;;;;;;;35.78;17.08;;;179.50;1945.60;;;;;;5083990;28;19912;-77
2021/04/25 04:26:53;;;;;;;;;;;179.70;1920.00;;;;;;5079595;28;20154;-77
2021/04/25 04:29:19;;;;;;;33.58;16.52;;;179.90;1945.60;;;;;;5086704;28;19912;-78
2021/04/25 04:31:44;;;;;;;;;;;180.00;1920.00;;;;;;5078040;28;20040;-77
2021/04/25 04:34:10;;;;;;;34.92;18.17;;;204.80;1894.40;;;;;;5082385;28;19920;-78
2021/04/25 04:36:36;;;;;;;;;;;205.00;1920.00;;;;;;5082971;28;20092;-78
2021/04/25 04:39:02;;;;;;;39.38;17.90;;;205.20;1945.60;;;;;;5078524;28;19944;-78
2021/04/25 04:41:28;;;;;;;37.78;19.90;;;205.20;1945.60;;;;;;5081112;28;20671;-77
2021/04/25 04:43:54;;;;;;;;;;;205.20;1945.60;;;;;;5072981;28;20484;-78
2021/04/25 04:46:20;;;;;;;33.97;18.73;;;205.40;1945.60;;;;;;5078286;28;19908;-79
2021/04/25 04:48:46;;;;;;;48.97;19.55;;;205.30;1971.20;;;;;;5077831;28;20025;-78
2021/04/25 04:51:11;;;;;;;;;;;205.50;1996.80;;;;;;5073813;28;20036;-78
2021/04/25 04:53:37;;;;;;;38.17;18.55;;;230.40;1945.60;;;;;;5078905;28;20364;-78
2021/04/25 04:56:03;;;;;;;;;;;230.40;1971.20;;;;;;5082346;28;20104;-79
2021/04/25 04:58:29;;;;;;;32.47;17.95;;;230.50;1996.80;;;;;;5084644;28;19923;-78
2021/04/25 05:00:54;;;;;;;;;;;230.60;1996.80;;;;;;5072593;28;20111;-78
2021/04/25 05:03:20;;;;;;;32.88;17.05;;;230.80;1971.20;;;;;;5089714;28;19957;-78
2021/04/25 05:05:46;;;;;;;;;;;230.80;1996.80;;;;;;5090092;28;20016;-78
2021/04/25 05:08:11;;;;;;;33.05;18.08;;;231.00;1996.80;;;;;;5079820;28;19991;-78
2021/04/25 05:10:37;;;;;;;;;;;231.20;1971.20;;;;;;5088833;28;20032;-78
2021/04/25 05:13:08;;;;;;;34.55;17.13;;;231.30;1945.60;;;;;;5081029;28;20310;-78
2021/04/25 05:15:34;;;;;;;33.45;18.00;;;256.00;1945.60;;;;;;5077295;28;20031;-78
2021/04/25 05:18:00;;;;;;;33.08;18.83;;;256.20;1894.40;;;;;;5083917;28;20547;-78
2021/04/25 05:20:28;;;;;;;33.88;16.88;;;256.40;1868.80;;;;;;5079884;28;20108;-78
2021/04/25 05:22:54;;;;;;;31.98;15.35;;;256.60;1689.60;;;;;;5086924;28;20028;-78
2021/04/25 05:25:19;;;;;;;27.70;17.02;;;256.80;1638.40;;;;;;5083894;28;20035;-78
2021/04/25 05:27:45;;;;;;;;;;;281.60;1664.00;;;;;;5087293;28;20111;-78
2021/04/25 05:30:11;;;;;;;33.25;16.02;;;281.70;1638.40;;;;;;5076748;28;19912;-78
2021/04/25 05:32:37;;;;;;;25.60;14.77;;;281.80;1638.40;;;;;;5075695;28;20471;-78
2021/04/25 05:35:03;;;;;;;32.17;18.77;;;281.80;1638.40;;;;;;5085839;28;20027;-77
2021/04/25 05:37:28;;;;;;;30.50;16.98;;;281.90;1638.40;;;;;;5083935;28;20031;-79
2021/04/25 05:39:54;;;;;;;;;;;282.00;1664.00;;;;;;5073526;28;20035;-78
2021/04/25 05:42:20;;;;;;;30.33;16.55;;;282.20;1664.00;;;;;;5085364;28;20115;-78
2021/04/25 05:44:45;;;;;;;;;;;282.10;1664.00;;;;;;5095426;28;20021;-78
2021/04/25 05:47:11;;;;;;;35.45;17.13;;;282.30;1638.40;;;;;;5091284;28;20363;-77
2021/04/25 05:49:37;;;;;;;31.13;16.00;;;282.40;1638.40;;;;;;5093561;28;20028;-80
2021/04/25 05:52:03;;;;;;;30.65;15.23;;;282.50;1612.80;;;;;;5092233;28;20506;-81
2021/04/25 05:54:29;;;;;;;37.35;17.92;;;307.20;1638.40;;;;;;5092037;28;20028;-78
2021/04/25 05:56:54;;;;;;;;;;;307.40;1638.40;;;;;;5092751;28;20020;-78
2021/04/25 05:59:20;;;;;;;36.75;19.02;;;307.50;1638.40;;;;;;5092974;28;19923;-77
2021/04/25 06:01:46;;;;;;;30.38;16.52;;;307.60;1612.80;;;;;;5092025;28;20392;-77
2021/04/25 06:04:12;;;;;;;32.08;15.32;;;307.80;1536.00;;;;;;5093600;28;20472;-79
2021/04/25 06:06:38;;;;;;;30.63;17.77;;;307.90;1536.00;;;;;;5079513;28;20056;-79
2021/04/25 06:09:05;;;;;;;28.50;16.23;;;308.00;1510.40;;;;;;5094295;28;20077;-78
2021/04/25 06:11:31;;;;;;;34.05;15.48;;;308.10;1510.40;;;;;;5092939;28;20187;-78
2021/04/25 06:13:56;;;;;;;23.05;14.50;;;332.90;1536.00;;;;;;5091600;28;20123;-78
2021/04/25 06:16:22;;;;;;;23.20;11.88;;;333.00;1561.60;;;;;;5091761;28;20103;-78
2021/04/25 06:18:48;;;;;;;;;;;333.10;1484.80;;;;;;5094274;28;20032;-77
2021/04/25 06:21:14;;;;;;;20.63;10.45;;;333.10;1484.80;;;;;;5094013;28;20348;-77
2021/04/25 06:23:40;;;;;;;18.60;10.50;;;333.20;1408.00;;;;;;5091620;28;20483;-76
2021/04/25 06:26:06;;;;;;;28.20;14.20;;;333.30;1408.00;;;;;;5077750;28;20028;-77
2021/04/25 06:28:31;;;;;;;18.42;9.60;;;333.40;1382.40;;;;;;5074309;28;20072;-77
2021/04/25 06:30:58;;;;;;;17.05;9.95;;;333.50;1382.40;;;;;;5089973;28;20515;-76
2021/04/25 06:33:24;;;;;;;22.15;10.02;;;333.60;1356.80;;;;;;5084034;28;20054;-77
2021/04/25 06:35:49;;;;;;;22.13;9.63;;;333.70;1305.60;;;;;;5093498;28;20056;-78
2021/04/25 06:38:16;;;;;;;22.85;9.23;;;358.50;1305.60;;;;;;5075657;28;20513;-78
2021/04/25 06:40:42;;;;;;;16.88;9.80;;;358.50;1228.80;;;;;;5087976;28;20012;-78
2021/04/25 06:43:08;;;;;;;18.92;9.30;;;358.60;1228.80;;;;;;5087883;28;20031;-79
2021/04/25 06:45:34;;;;;;;17.48;9.48;;;358.70;1280.00;;;;;;5078859;28;20032;-78
2021/04/25 06:48:00;;;;;;;16.20;10.07;;;358.90;1305.60;;;;;;5090918;28;20090;-78
2021/04/25 06:50:26;;;;;;;16.48;8.82;;;359.00;1228.80;;;;;;5091059;28;20410;-79
2021/04/25 06:52:51;;;;;;;15.63;9.98;;;359.10;1254.40;;;;;;5091153;28;20036;-78
2021/04/25 06:55:20;;;;;;;15.45;10.13;;;359.20;1228.80;;;;;;5092114;28;20016;-78
2021/04/25 06:57:47;;;;;;;20.65;11.15;;;359.20;1228.80;;;;;;5089816;28;20107;-78
2021/04/25 07:00:15;;;;;;;21.42;8.73;;;359.30;1228.80;;;;;;5093140;28;20471;-78
2021/04/25 07:02:41;;;;;;;16.98;7.82;;;384.00;1203.20;;;;;;5092217;28;20024;-78
2021/04/25 07:05:08;;;;;;;16.90;7.35;;;384.10;1228.80;;;;;;5090660;28;20047;-81
2021/04/25 07:07:34;;;;;;;15.10;7.18;;;384.20;1152.00;;;;;;5079348;28;20031;-79
2021/04/25 07:10:00;;;;;;;17.70;7.55;;;384.30;1203.20;;;;;;5091521;28;20024;-78
2021/04/25 07:12:26;;;;;;;14.35;8.27;;;384.40;1254.40;;;;;;5092949;28;20043;-78
2021/04/25 07:14:53;;;;;;;22.65;9.02;;;384.40;1203.20;;;;;;5093038;28;20376;-78
2021/04/25 07:17:19;;;;;;;18.85;9.38;;;384.50;1177.60;;;;;;5092862;28;20030;-77
2021/04/25 07:19:45;;;;;;;20.50;9.02;;;384.70;1228.80;;;;;;5091948;28;20024;-80
2021/04/25 07:22:11;;;;;;;21.50;9.93;;;384.80;1126.40;;;;;;5092923;28;20024;-88
2021/04/25 07:24:37;;;;;;;14.23;8.82;;;409.60;1152.00;;;;;;5093322;28;20012;-88
2021/04/25 07:27:03;;;;;;;15.32;9.20;;;384.90;1100.80;;;;;;5092969;28;20373;-77
2021/04/25 07:29:30;;;;;;;17.67;9.32;;;409.60;1203.20;;;;;;5087159;28;20032;-85
2021/04/25 07:31:57;;;;;;;17.48;8.57;;;409.70;1152.00;;;;;;5084945;28;20032;-86
2021/04/25 07:34:23;;;;;;;18.35;9.00;;;409.80;1100.80;;;;;;5092543;28;20028;-76
2021/04/25 07:36:49;;;;;;;16.15;8.90;;;409.90;1100.80;;;;;;5089699;28;20039;-76
2021/04/25 07:39:15;;;;;;;26.13;10.43;;;409.90;1126.40;;;;;;5077835;28;20074;-77
2021/04/25 07:41:40;;;;;;;20.05;9.57;;;409.90;1177.60;;;;;;5090962;28;20027;-79
2021/04/25 07:44:07;;;;;;;19.88;9.32;;;410.10;1075.20;;;;;;5080214;28;20074;-77
2021/04/25 07:46:32;;;;;;;18.20;9.32;;;410.20;1100.80;;;;;;5089088;28;20095;-79
2021/04/25 07:48:58;;;;;;;19.85;10.07;;;410.30;1126.40;;;;;;5090806;28;20115;-83
2021/04/25 07:51:24;;;;;;;18.98;9.85;;;410.50;1049.60;;;;;;5092393;28;20032;-78
2021/04/25 07:53:52;;;;;;;17.00;9.88;;;410.50;1024.00;;;;;;5090093;28;20021;-82
2021/04/25 07:56:19;;;;;;;17.90;9.75;;;410.50;1152.00;;;;;;5090964;28;20093;-79
2021/04/25 07:58:45;;;;;;;22.08;15.13;;;435.20;1049.60;;;;;;5090385;28;20058;-80
2021/04/25 08:01:10;;;;;;;14.18;8.50;;;435.30;1049.60;;;;;;5089916;28;20024;-78
2021/04/25 08:03:36;;;;;;;14.80;8.27;;;435.30;998.40;;;;;;5090104;28;20039;-79
2021/04/25 08:06:04;;;;;;;17.67;7.90;;;435.30;1024.00;;;;;;5083840;28;20028;-80
2021/04/25 08:08:30;;;;;;;14.73;7.68;;;435.30;972.80;;;;;;5085961;28;20027;-78
2021/04/25 08:10:56;;;;;;;20.50;7.65;;;435.40;972.80;;;;;;5085912;28;20465;-81
2021/04/25 08:13:22;;;;;;;12.40;6.45;;;435.30;947.20;;;;;;5087824;28;20035;-79
2021/04/25 08:15:48;;;;;;;12.70;7.35;;;435.60;947.20;;;;;;5074651;28;20024;-78
2021/04/25 08:18:14;;;;;;;16.45;8.07;;;435.80;947.20;;;;;;5074572;28;20500;-79
2021/04/25 08:20:40;;;;;;;14.88;8.50;;;435.80;972.80;;;;;;5075663;28;20023;-81
2021/04/25 08:23:06;;;;;;;15.95;8.45;;;435.80;896.00;;;;;;5073144;28;20024;-89
2021/04/25 08:25:32;;;;;;;14.02;7.05;;;435.80;921.60;;;;;;5084594;28;20107;-86
2021/04/25 08:27:58;;;;;;;12.55;7.07;;;435.70;844.80;;;;;;5090337;28;20028;-85
2021/04/25 08:30:24;;;;;;;15.45;7.13;;;435.80;870.40;;;;;;5090602;28;20031;-88
2021/04/25 08:32:50;;;;;;;14.55;7.13;;;435.60;896.00;;;;;;5090116;28;20549;-78
2021/04/25 08:35:18;;;;;;;19.98;7.40;;;435.60;896.00;;;;;;5089330;28;20055;-78
2021/04/25 08:37:44;;;;;;;14.90;7.53;;;435.60;896.00;;;;;;5087504;28;20092;-92
2021/04/25 08:40:10;;;;;;;12.63;7.32;;;435.70;896.00;;;;;;5090559;28;20020;-78
2021/04/25 08:42:36;;;;;;;13.77;6.90;;;435.80;947.20;;;;;;5088830;28;20054;-79
2021/04/25 08:45:03;;;;;;;12.50;7.30;;;435.80;972.80;;;;;;5088554;28;20057;-79
2021/04/25 08:47:29;;;;;;;21.42;7.55;;;435.80;870.40;;;;;;5088416;28;20047;-77
2021/04/25 08:50:00;;;;;;;18.73;7.60;;;435.90;896.00;;;;;;5074005;28;20025;-79
2021/04/25 08:52:27;;;;;;;17.98;9.48;;;435.70;870.40;;;;;;5080446;28;20032;-80
2021/04/25 08:54:53;;;;;;;15.48;7.28;;;435.80;870.40;;;;;;5071881;28;20078;-79
2021/04/25 08:57:19;;;;;;;14.55;8.88;;;435.90;870.40;;;;;;5073670;28;20032;-79
2021/04/25 08:59:45;;;;;;;17.23;7.65;;;436.00;870.40;;;;;;5077420;28;20044;-81
2021/04/25 09:02:11;;;;;;;15.57;7.78;;;460.80;972.80;;;;;;5082287;28;20099;-79
2021/04/25 09:04:36;;;;;;;15.18;7.63;;;460.80;896.00;;;;;;5073196;28;20089;-79
2021/04/25 09:07:12;;;;;;;13.98;7.78;;;460.80;844.80;;;;;;5075032;28;20032;-79
2021/04/25 09:09:45;;;;;;;16.90;9.07;;;460.80;844.80;;;;;;5081779;28;20574;-78
2021/04/25 09:12:15;;;;;;;17.52;8.07;;;460.90;870.40;;;;;;5092604;28;20077;-82
2021/04/25 09:14:41;;;;;;;14.32;7.40;;;460.90;870.40;;;;;;5085567;28;20480;-79
2021/04/25 09:17:08;;;;;;;14.35;7.65;;;460.90;844.80;;;;;;5084822;28;20056;-80
2021/04/25 09:19:54;;;;;;;13.43;7.53;;;461.00;896.00;;;;;;5094913;28;20107;-79
2021/04/25 09:22:21;;;;;;;11.77;6.95;;;461.10;844.80;;;;;;5084528;28;20024;-80
2021/04/25 09:24:48;;;;;;;14.25;7.32;;;461.20;844.80;;;;;;5086016;28;20048;-79
2021/04/25 09:27:25;;;;;;;14.65;7.05;;;461.20;819.20;;;;;;5083293;28;20090;-80
2021/04/25 09:29:51;;;;;;;;;;;461.40;844.80;;;;;;5084896;28;20453;-80
2021/04/25 09:32:25;;;;;;;14.23;7.53;;;461.40;819.20;;;;;;5090594;28;20338;-80
2021/04/25 09:35:05;;;;;;;14.68;8.63;;;461.40;819.20;;;;;;5081413;28;20434;-79
2021/04/25 09:37:35;;;;;;;14.25;8.27;;;461.40;844.80;;;;;;5080688;28;20031;-81
2021/04/25 09:40:11;;;;;;;14.18;8.32;;;461.40;793.60;;;;;;5075508;28;20476;-82
2021/04/25 09:42:55;;;;;;;;;;;486.40;793.60;;;;;;5077436;28;20120;-77
2021/04/25 09:45:51;;;;;;;14.48;7.65;;;461.70;844.80;;;;;;5076430;28;19905;-77
2021/04/25 09:48:31;;;;;;;17.42;9.07;;;486.70;768.00;;;;;;5076228;28;20021;-78
2021/04/25 09:51:10;;;;;;;15.13;8.02;;;486.80;793.60;;;;;;5076941;28;20031;-79
2021/04/25 09:53:37;;;;;;;16.67;9.18;;;487.00;793.60;;;;;;5076080;28;20021;-80
2021/04/25 09:56:04;;;;;;;13.85;8.57;;;487.10;793.60;;;;;;5075643;28;20408;-79
2021/04/25 09:58:31;;;;;;;13.90;8.05;;;487.20;716.80;;;;;;5075991;28;20049;-79
2021/04/25 10:00:57;;;;;;;15.63;8.00;;;487.30;742.40;;;;;;5087258;28;20077;-79
2021/04/25 10:03:23;;;;;;;14.60;8.07;;;512.00;793.60;;;;;;5077912;28;20461;-81
2021/04/25 10:06:00;;;;;;;15.48;8.35;;;487.20;819.20;;;;;;5075946;28;20064;-79
2021/04/25 10:08:34;;;;;;;14.52;8.20;;;512.20;691.20;;;;;;5087828;28;20032;-79
2021/04/25 10:11:03;;;;;;;18.63;8.50;;;512.60;716.80;;;;;;5094037;28;20115;-79
2021/04/25 10:13:33;;;;;;;14.77;8.20;;;512.50;691.20;;;;;;5094080;28;20026;-79
2021/04/25 10:15:59;;;;;;;11.65;7.65;;;512.70;665.60;;;;;;5093004;28;20415;-79
2021/04/25 10:18:26;;;;;;;18.13;8.38;;;512.90;665.60;;;;;;5094316;28;20040;-80
2021/04/25 10:20:53;;;;;;;15.65;7.75;;;537.70;716.80;;;;;;5093862;28;20097;-79
2021/04/25 10:23:20;;;;;;;13.70;7.25;;;537.60;768.00;;;;;;5093116;28;20454;-79
2021/04/25 10:25:47;;;;;;;14.85;7.55;;;512.90;716.80;;;;;;5093947;28;20530;-79
2021/04/25 10:28:20;;;;;;;13.70;6.70;;;537.70;768.00;;;;;;5093791;28;20034;-79
2021/04/25 10:30:47;;;;;;;15.32;7.00;;;537.80;742.40;;;;;;5093443;28;20033;-79
2021/04/25 10:33:13;;;;;;;12.27;7.43;;;538.00;691.20;;;;;;5093879;28;20016;-79
2021/04/25 10:35:52;;;;;;;10.98;6.95;;;537.90;716.80;;;;;;5093608;28;20381;-79
2021/04/25 10:38:37;;;;;;;12.50;6.72;;;538.00;691.20;;;;;;5092469;28;20027;-79
2021/04/25 10:41:23;;;;;;;10.93;6.80;;;538.00;742.40;;;;;;5082180;28;20056;-80
2021/04/25 10:44:03;;;;;;;11.32;6.18;;;538.10;716.80;;;;;;5082282;28;20040;-79
2021/04/25 10:46:55;;;;;;;13.80;7.75;;;537.80;691.20;;;;;;5082988;28;20052;-78
2021/04/25 10:49:40;;;;;;;13.68;7.30;;;538.10;691.20;;;;;;5047999;28;20052;-91
2021/04/25 10:52:24;;;;;;;15.02;7.28;;;538.50;691.20;;;;;;5047991;28;20033;-83
2021/04/25 10:55:15;;;;;;;12.02;6.63;;;538.50;742.40;;;;;;5045820;28;20120;-79
2021/04/25 11:00:33;;;;;;;13.07;7.53;;;538.50;716.80;;;;;;5049252;28;20048;-79
2021/04/25 11:03:21;;;;;;;17.30;7.75;;;563.50;742.40;;;;;;5048542;28;20020;-79
2021/04/25 11:05:51;;;;;;;11.90;7.30;;;563.20;742.40;;;;;;5049605;28;20031;-78
2021/04/25 11:08:29;;;;;;;14.95;7.70;;;563.20;742.40;;;;;;5031875;28;20022;-88
2021/04/25 11:11:01;;;;;;;11.00;6.68;;;538.50;716.80;;;;;;5034338;28;20461;-79
2021/04/25 11:13:33;;;;;;;12.50;7.10;;;538.50;793.60;;;;;;5049296;28;20040;-78
2021/04/25 11:16:01;;;;;;;13.07;7.70;;;563.40;768.00;;;;;;5049967;28;20017;-80
2021/04/25 11:18:46;;;;;;;13.82;6.38;;;563.20;716.80;;;;;;5050186;28;20021;-78
2021/04/25 11:23:55;;;;;;;13.90;6.90;;;563.90;716.80;;;;;;5030696;28;20033;-79
2021/04/25 11:26:39;;;;;;;14.52;7.15;;;563.50;742.40;;;;;;5059163;28;20105;-78
2021/04/25 11:29:11;;;;;;;13.38;7.55;;;563.30;742.40;;;;;;5077585;28;20134;-79
2021/04/25 11:31:46;;;;;;;10.50;6.15;;;538.40;716.80;;;;;;5081505;28;20115;-77
2021/04/25 11:34:27;;;;;;;10.60;7.53;;;563.30;716.80;;;;;;5078593;28;20048;-77
2021/04/25 11:36:54;;;;;;;13.38;7.07;;;563.60;691.20;;;;;;5080458;28;20021;-84
2021/04/25 11:39:26;;;;;;;13.15;6.82;;;563.70;716.80;;;;;;5083194;28;20043;-78
2021/04/25 11:41:53;;;;;;;16.67;7.47;;;563.90;716.80;;;;;;5080246;28;20025;-81
2021/04/25 11:44:26;;;;;;;12.40;6.65;;;588.80;742.40;;;;;;5075432;28;20029;-78
2021/04/25 11:46:53;;;;;;;13.65;7.20;;;564.10;716.80;;;;;;5083130;28;20380;-78
2021/04/25 11:49:29;;;;;;;13.50;7.20;;;564.10;691.20;;;;;;5084881;28;20016;-78
2021/04/25 11:52:06;;;;;;;12.18;7.25;;;588.80;716.80;;;;;;5081282;28;20181;-78
2021/04/25 11:54:32;;;;;;;11.35;7.43;;;588.90;640.00;;;;;;5085319;28;20426;-78
2021/04/25 11:57:14;;;;;;;13.48;6.88;;;589.00;691.20;;;;;;5076270;28;20024;-77
2021/04/25 12:00:06;;;;;;;13.27;7.13;;;588.90;640.00;;;;;;5074171;28;20041;-78
2021/04/25 12:02:44;;;;;;;11.43;6.68;;;589.10;640.00;;;;;;5077057;28;20041;-76
2021/04/25 12:05:16;;;;;;;12.30;6.78;;;588.90;640.00;;;;;;5083389;28;20028;-78
2021/04/25 12:07:42;;;;;;;13.00;7.40;;;589.10;665.60;;;;;;5090423;28;20020;-77
2021/04/25 12:10:12;;;;;;;10.00;6.75;;;589.20;640.00;;;;;;5088135;28;20114;-78
2021/04/25 12:12:57;;;;;;;11.05;7.10;;;564.10;665.60;;;;;;5073994;28;20029;-77
2021/04/25 12:15:24;;;;;;;13.82;6.60;;;589.10;640.00;;;;;;5089916;28;20023;-78
2021/04/25 12:17:54;;;;;;;11.15;6.93;;;588.90;691.20;;;;;;5081204;28;20035;-78
2021/04/25 12:20:20;;;;;;;13.68;7.63;;;588.80;691.20;;;;;;5073343;28;20063;-78
2021/04/25 12:22:47;;;;;;;10.80;6.45;;;589.10;665.60;;;;;;5072062;28;20048;-78
2021/04/25 12:25:13;;;;;;;11.45;6.57;;;589.20;640.00;;;;;;5072133;28;20021;-78
2021/04/25 12:27:51;;;;;;;9.98;6.40;;;588.80;716.80;;;;;;5087272;28;20032;-78
2021/04/25 12:30:23;;;;;;;35.88;14.02;;;564.00;716.80;;;;;;5076848;28;20476;-77
2021/04/25 12:33:03;;;;;;;12.20;7.43;;;564.00;665.60;;;;;;5074056;28;20068;-78